Terminal Aerodrome Forecast
Issued by NWS Bismarck, ND

Home | Current Version | Previous Version | Text Only | Print | Product List | Glossary Off
Versions: 1 2 3 4 5 6 7 8 9 10 11 12 13 14 15 16 17 18 19 20 21

000
FTUS43 KBIS 011400 AAA
TAFISN
TAF AMD
KISN 011408Z 0114/0212 28016KT P6SM BKN025 OVC070
     FM011600 29020G30KT P6SM BKN035 OVC070
     FM012200 30015KT P6SM BKN040 BKN070
     FM020300 28005KT P6SM SCT050 BKN250=

USA.gov is the U.S. government's official web portal to all federal, state and local government web resources and services.